Time;durP1;ratioP1;P1;durP2;ratioP2;P2;SDS_P1;SDS_P2;PMS_P1;PMS_P2;Temp;Humidity;BMP_temperature;BMP_pressure;BME280_temperature;BME280_humidity;BME280_pressure;Samples;Min_cycle;Max_cycle;Signal;HPM_P1;HPM_P2
2022/07/12 00:01:21;;;;;;;1.90;1.80;;;16.20;68.50;;;;;;5055296;28;20040;-61
2022/07/12 00:03:47;;;;;;;1.70;1.60;;;16.20;67.50;;;;;;5058092;28;20454;-62
2022/07/12 00:06:12;;;;;;;1.85;1.75;;;16.10;67.70;;;;;;5056170;28;20562;-62
2022/07/12 00:08:38;;;;;;;3.08;1.90;;;16.10;68.00;;;;;;5055457;28;20029;-62
2022/07/12 00:11:04;;;;;;;1.77;1.67;;;16.10;68.00;;;;;;5053623;28;20033;-64
2022/07/12 00:13:31;;;;;;;2.35;1.70;;;16.10;68.10;;;;;;5058250;28;20113;-63
2022/07/12 00:15:57;;;;;;;3.47;1.65;;;16.10;68.20;;;;;;5040996;28;20031;-63
2022/07/12 00:18:24;;;;;;;1.67;1.52;;;16.10;68.30;;;;;;5055412;28;20076;-63
2022/07/12 00:20:50;;;;;;;2.10;1.90;;;16.00;68.30;;;;;;5055514;28;20492;-63
2022/07/12 00:23:16;;;;;;;1.83;1.73;;;16.00;68.40;;;;;;5053095;28;20044;-60
2022/07/12 00:25:42;;;;;;;2.67;1.83;;;16.00;68.50;;;;;;5053882;28;20033;-63
2022/07/12 00:28:08;;;;;;;1.90;1.80;;;16.00;68.60;;;;;;5052419;28;20411;-63
2022/07/12 00:30:33;;;;;;;2.80;2.15;;;15.90;68.60;;;;;;5055412;28;20555;-63
2022/07/12 00:32:59;;;;;;;2.20;2.00;;;15.90;68.80;;;;;;5051924;28;20119;-62
2022/07/12 00:35:24;;;;;;;2.08;1.90;;;15.80;69.10;;;;;;5056460;28;20059;-63
2022/07/12 00:37:50;;;;;;;2.25;2.03;;;15.70;69.00;;;;;;5054415;28;20040;-64
2022/07/12 00:40:17;;;;;;;2.30;2.10;;;15.70;69.40;;;;;;5055328;28;20041;-62
2022/07/12 00:42:42;;;;;;;1.90;1.80;;;15.70;69.70;;;;;;5053527;28;20410;-61
2022/07/12 00:45:09;;;;;;;2.35;2.00;;;15.70;70.70;;;;;;5055651;28;20036;-63
2022/07/12 00:47:40;;;;;;;1.77;1.67;;;15.60;69.90;;;;;;5054328;28;20523;-63
2022/07/12 00:50:09;;;;;;;2.00;1.80;;;15.60;70.40;;;;;;5053629;28;20041;-60
2022/07/12 00:52:36;;;;;;;4.18;2.20;;;15.50;70.30;;;;;;5051051;28;20536;-62
2022/07/12 00:55:06;;;;;;;2.55;2.03;;;15.50;70.20;;;;;;5053629;28;20392;-61
2022/07/12 00:57:33;;;;;;;2.92;2.17;;;15.40;70.30;;;;;;5055292;28;20056;-61
2022/07/12 00:59:59;;;;;;;2.00;1.85;;;15.40;70.60;;;;;;5053978;28;20120;-63
2022/07/12 01:02:25;;;;;;;4.03;2.20;;;15.30;70.50;;;;;;5056623;28;20128;-62
2022/07/12 01:04:52;;;;;;;1.98;1.85;;;15.30;70.70;;;;;;5055273;28;20214;-63
2022/07/12 01:07:18;;;;;;;2.30;2.10;;;15.30;70.70;;;;;;5053420;28;20612;-63
2022/07/12 01:09:44;;;;;;;2.47;1.75;;;15.30;70.70;;;;;;5055987;28;20132;-62
2022/07/12 01:12:10;;;;;;;2.10;1.92;;;15.30;70.60;;;;;;5037475;28;20653;-63
2022/07/12 01:14:39;;;;;;;2.20;2.00;;;15.40;70.50;;;;;;5054752;28;20036;-62
2022/07/12 01:17:06;;;;;;;1.88;1.77;;;15.40;70.20;;;;;;5054200;28;20032;-63
2022/07/12 01:19:32;;;;;;;1.98;1.88;;;15.40;70.00;;;;;;5054737;28;20174;-61
2022/07/12 01:22:01;;;;;;;2.50;1.95;;;15.40;70.30;;;;;;5054711;28;20056;-62
2022/07/12 01:24:26;;;;;;;2.30;2.10;;;15.30;70.20;;;;;;5054804;28;20114;-61
2022/07/12 01:26:53;;;;;;;2.40;2.25;;;15.30;70.20;;;;;;5053214;28;20020;-63
2022/07/12 01:29:19;;;;;;;2.33;1.70;;;15.30;70.20;;;;;;5053615;28;20043;-63
2022/07/12 01:31:45;;;;;;;1.98;1.80;;;15.30;70.40;;;;;;5052398;28;20040;-62
2022/07/12 01:34:11;;;;;;;2.40;2.20;;;15.20;70.40;;;;;;5054526;28;20080;-63
2022/07/12 01:36:37;;;;;;;2.78;2.33;;;15.10;70.40;;;;;;5052036;28;20676;-63
2022/07/12 01:39:04;;;;;;;2.50;2.28;;;15.20;71.60;;;;;;5054696;28;20151;-62
2022/07/12 01:41:31;;;;;;;2.33;2.13;;;15.10;70.70;;;;;;5051659;28;20556;-63
2022/07/12 01:43:57;;;;;;;4.85;2.75;;;15.10;70.80;;;;;;5055130;28;20037;-62
2022/07/12 01:46:22;;;;;;;4.82;3.30;;;15.00;70.80;;;;;;5054515;28;20033;-63
2022/07/12 01:48:48;;;;;;;6.00;3.72;;;15.00;71.10;;;;;;5054332;28;20086;-64
2022/07/12 01:51:14;;;;;;;9.45;4.63;;;14.90;71.00;;;;;;5053540;28;20029;-62
2022/07/12 01:53:39;;;;;;;7.47;3.97;;;14.90;71.20;;;;;;5051963;28;20039;-61
2022/07/12 01:56:05;;;;;;;5.57;3.75;;;14.90;71.30;;;;;;5050644;28;20088;-61
2022/07/12 01:58:31;;;;;;;5.55;3.58;;;14.90;71.40;;;;;;5051282;28;22319;-63
2022/07/12 02:00:58;;;;;;;5.10;3.20;;;14.80;71.50;;;;;;5053195;28;20037;-61
2022/07/12 02:03:24;;;;;;;2.78;2.58;;;14.80;71.70;;;;;;5053567;28;20411;-62
2022/07/12 02:05:49;;;;;;;3.03;2.10;;;14.80;71.90;;;;;;5056974;28;20029;-62
2022/07/12 02:08:15;;;;;;;2.50;2.30;;;14.70;72.10;;;;;;5058987;28;20032;-61
2022/07/12 02:10:43;;;;;;;3.17;2.17;;;14.70;72.20;;;;;;5053494;28;20048;-62
2022/07/12 02:13:09;;;;;;;2.45;2.25;;;14.60;72.30;;;;;;5057555;28;20042;-62
2022/07/12 02:15:34;;;;;;;3.65;2.67;;;14.60;72.50;;;;;;5058753;28;20025;-62
2022/07/12 02:18:00;;;;;;;3.22;2.75;;;14.50;72.50;;;;;;5058296;28;20029;-63
2022/07/12 02:20:26;;;;;;;2.90;2.65;;;14.50;72.60;;;;;;5055173;28;20415;-61
2022/07/12 02:22:51;;;;;;;2.58;2.38;;;14.50;72.70;;;;;;5056974;28;20032;-61
2022/07/12 02:25:17;;;;;;;2.53;2.30;;;14.50;72.80;;;;;;5057289;28;20037;-62
2022/07/12 02:27:43;;;;;;;2.65;2.45;;;14.50;73.00;;;;;;5056105;28;20139;-60
2022/07/12 02:30:10;;;;;;;2.42;2.22;;;14.50;72.80;;;;;;5056991;28;20499;-64
2022/07/12 02:32:37;;;;;;;2.63;2.40;;;14.50;72.90;;;;;;5056043;28;20036;-62
2022/07/12 02:35:06;;;;;;;2.50;2.30;;;14.50;72.80;;;;;;5055059;28;20539;-63
2022/07/12 02:37:32;;;;;;;2.40;2.20;;;14.50;73.00;;;;;;5056218;28;20678;-63
2022/07/12 02:40:58;;;;;;;2.28;2.15;;;14.40;72.80;;;;;;5057816;28;20036;-61
2022/07/12 02:42:52;;;;;;;1.95;1.85;;;14.40;72.80;;;;;;5042406;28;20477;-61
2022/07/12 02:45:18;;;;;;;2.45;2.25;;;14.40;72.70;;;;;;5056701;28;20060;-61
2022/07/12 02:47:43;;;;;;;5.07;2.40;;;14.40;72.70;;;;;;5058474;28;20036;-61
2022/07/12 02:50:09;;;;;;;2.85;2.53;;;14.40;72.80;;;;;;5057956;28;20040;-63
2022/07/12 02:52:35;;;;;;;3.78;2.83;;;14.40;72.70;;;;;;5055033;28;20048;-62
2022/07/12 02:55:00;;;;;;;3.45;2.30;;;14.40;72.60;;;;;;5057571;28;20441;-62
2022/07/12 02:57:26;;;;;;;2.70;2.40;;;14.40;72.80;;;;;;5052798;28;20083;-63
2022/07/12 02:59:52;;;;;;;2.38;2.17;;;14.40;72.80;;;;;;5056993;28;20109;-62
2022/07/12 03:02:17;;;;;;;2.33;2.22;;;14.40;72.70;;;;;;5052679;28;20035;-61
2022/07/12 03:04:43;;;;;;;2.67;2.47;;;14.30;72.70;;;;;;5056440;28;20033;-62
2022/07/12 03:07:08;;;;;;;3.00;2.42;;;14.30;72.70;;;;;;5059033;28;20108;-60
2022/07/12 03:09:35;;;;;;;2.22;2.03;;;14.30;72.70;;;;;;5057186;28;20094;-61
2022/07/12 03:12:00;;;;;;;2.28;2.08;;;14.30;72.80;;;;;;5061482;28;20029;-59
2022/07/12 03:14:26;;;;;;;1.83;1.73;;;14.30;72.80;;;;;;5057080;28;20075;-62
2022/07/12 03:16:52;;;;;;;5.80;2.30;;;14.30;72.80;;;;;;5058818;28;20033;-63
2022/07/12 03:19:17;;;;;;;3.70;2.58;;;14.20;72.70;;;;;;5057494;28;20064;-62
2022/07/12 03:21:43;;;;;;;2.75;2.00;;;14.20;72.80;;;;;;5058270;28;20037;-62
2022/07/12 03:24:10;;;;;;;2.42;2.22;;;14.20;73.00;;;;;;5059657;28;20123;-62
2022/07/12 03:26:35;;;;;;;4.47;2.40;;;14.10;73.00;;;;;;5056347;28;20041;-63
2022/07/12 03:29:01;;;;;;;2.42;2.20;;;14.10;73.00;;;;;;5057375;28;20366;-62
2022/07/12 03:31:27;;;;;;;2.30;2.10;;;14.10;73.10;;;;;;5058341;28;20047;-62
2022/07/12 03:33:53;;;;;;;2.60;2.40;;;14.10;73.20;;;;;;5060618;28;20032;-61
2022/07/12 03:36:18;;;;;;;2.70;2.30;;;14.00;73.20;;;;;;5059000;28;20636;-62
2022/07/12 03:38:44;;;;;;;2.88;2.60;;;14.10;73.20;;;;;;5055649;28;20095;-63
2022/07/12 03:41:10;;;;;;;3.25;2.60;;;14.00;73.30;;;;;;5056805;28;20626;-62
2022/07/12 03:43:35;;;;;;;2.88;2.50;;;14.00;73.50;;;;;;5055944;28;20051;-63
2022/07/12 03:46:01;;;;;;;2.75;2.55;;;13.90;73.70;;;;;;5058879;28;20028;-64
2022/07/12 03:48:26;;;;;;;5.05;2.92;;;13.90;73.80;;;;;;5056619;28;20124;-62
2022/07/12 03:50:53;;;;;;;3.28;2.42;;;13.90;73.90;;;;;;5053664;28;20888;-62
2022/07/12 03:53:18;;;;;;;2.97;2.67;;;13.80;74.00;;;;;;5054121;28;20412;-63
2022/07/12 03:55:44;;;;;;;3.05;2.50;;;13.80;74.10;;;;;;5056411;28;20037;-61
2022/07/12 03:58:10;;;;;;;2.53;2.33;;;13.80;74.30;;;;;;5057616;28;20029;-62
2022/07/12 04:00:35;;;;;;;2.75;2.55;;;13.80;74.20;;;;;;5055902;28;20488;-61
2022/07/12 04:03:01;;;;;;;4.47;3.10;;;13.80;74.20;;;;;;5055960;28;20025;-63
2022/07/12 04:05:27;;;;;;;5.43;3.30;;;13.80;74.20;;;;;;5054633;28;20037;-63
2022/07/12 04:07:54;;;;;;;3.65;3.17;;;13.90;74.40;;;;;;5057621;28;20395;-63
2022/07/12 04:10:20;;;;;;;8.85;3.70;;;13.90;74.70;;;;;;5055085;28;20328;-63
2022/07/12 04:12:46;;;;;;;5.88;3.20;;;13.90;74.80;;;;;;5053027;28;20499;-63
2022/07/12 04:15:12;;;;;;;4.88;3.50;;;13.90;74.70;;;;;;5054044;28;20040;-63
2022/07/12 04:17:38;;;;;;;3.95;2.80;;;14.00;74.70;;;;;;5057478;28;20043;-63
2022/07/12 04:20:06;;;;;;;4.35;3.00;;;14.00;74.50;;;;;;5054461;28;20257;-60
2022/07/12 04:22:31;;;;;;;5.63;3.10;;;14.00;74.40;;;;;;5053474;28;20040;-64
2022/07/12 04:24:57;;;;;;;3.55;3.00;;;14.00;74.40;;;;;;5055922;28;20036;-62
2022/07/12 04:27:23;;;;;;;4.68;3.00;;;14.10;74.50;;;;;;5045727;28;20040;-64
2022/07/12 04:29:48;;;;;;;3.17;2.97;;;14.10;74.40;;;;;;5052864;28;20040;-63
2022/07/12 04:32:14;;;;;;;4.28;3.50;;;14.10;74.40;;;;;;5055258;28;20496;-63
2022/07/12 04:34:40;;;;;;;5.38;3.38;;;14.10;74.40;;;;;;5054269;28;20592;-64
2022/07/12 04:37:05;;;;;;;3.90;3.30;;;14.20;74.70;;;;;;5052500;28;20029;-64
2022/07/12 04:39:31;;;;;;;3.53;3.17;;;14.20;74.70;;;;;;5051491;28;20827;-63
2022/07/12 04:41:56;;;;;;;7.20;3.58;;;14.20;74.90;;;;;;5047673;28;20071;-63
2022/07/12 04:44:22;;;;;;;3.90;3.50;;;14.20;75.10;;;;;;5054939;28;20052;-64
2022/07/12 04:46:48;;;;;;;8.70;3.75;;;14.20;75.40;;;;;;5053804;28;20087;-61
2022/07/12 04:49:13;;;;;;;4.88;3.63;;;14.30;75.60;;;;;;5054150;28;20496;-63
2022/07/12 04:51:39;;;;;;;4.20;3.80;;;14.30;75.70;;;;;;5053206;28;20526;-64
2022/07/12 04:54:04;;;;;;;5.78;3.95;;;14.40;76.00;;;;;;5052234;28;21190;-62
2022/07/12 04:56:30;;;;;;;4.40;3.83;;;14.40;76.10;;;;;;5056449;28;20056;-63
2022/07/12 04:58:56;;;;;;;6.40;3.80;;;14.50;76.30;;;;;;5057024;28;20056;-63
2022/07/12 05:01:21;;;;;;;5.30;3.65;;;14.50;76.40;;;;;;5055864;28;20036;-64
2022/07/12 05:03:47;;;;;;;3.72;3.42;;;14.60;76.50;;;;;;5055691;28;20091;-62
2022/07/12 05:06:13;;;;;;;5.40;3.80;;;14.70;76.60;;;;;;5056338;28;20036;-64
2022/07/12 05:08:38;;;;;;;7.60;3.83;;;14.80;76.80;;;;;;5053539;28;20510;-63
2022/07/12 05:11:04;;;;;;;4.15;3.55;;;14.80;76.80;;;;;;5050595;28;20116;-62
2022/07/12 05:13:30;;;;;;;5.05;4.00;;;14.90;77.00;;;;;;5054788;28;20476;-65
2022/07/12 05:15:56;;;;;;;3.95;3.65;;;14.90;77.00;;;;;;5054202;28;20400;-63
2022/07/12 05:18:22;;;;;;;5.82;4.28;;;15.00;77.20;;;;;;5053468;28;20048;-62
2022/07/12 05:20:47;;;;;;;4.63;4.07;;;15.10;77.20;;;;;;5053186;28;20484;-64
2022/07/12 05:23:13;;;;;;;7.07;4.90;;;15.20;77.20;;;;;;5053627;28;20523;-63
2022/07/12 05:25:38;;;;;;;7.43;4.63;;;15.30;77.40;;;;;;5053732;28;20060;-63
2022/07/12 05:28:04;;;;;;;5.65;5.05;;;15.40;77.50;;;;;;5054050;28;20115;-63
2022/07/12 05:30:30;;;;;;;5.47;4.97;;;15.50;77.50;;;;;;5053460;28;20065;-61
2022/07/12 05:32:55;;;;;;;5.68;4.93;;;15.60;77.90;;;;;;5053504;28;20033;-62
2022/07/12 05:35:21;;;;;;;6.00;5.40;;;15.70;77.90;;;;;;5053974;28;20331;-64
2022/07/12 05:37:46;;;;;;;8.07;5.13;;;15.80;77.70;;;;;;5054128;28;20029;-64
2022/07/12 05:40:12;;;;;;;7.95;5.22;;;15.90;77.50;;;;;;5054284;28;20032;-59
2022/07/12 05:42:38;;;;;;;7.32;5.30;;;16.00;77.50;;;;;;5052505;28;20024;-64
2022/07/12 05:45:05;;;;;;;5.88;5.38;;;16.10;77.60;;;;;;5051607;28;20412;-63
2022/07/12 05:47:31;;;;;;;7.38;5.53;;;16.20;77.50;;;;;;5052525;28;20132;-62
2022/07/12 05:49:56;;;;;;;6.68;5.07;;;16.30;78.10;;;;;;5051421;28;20036;-63
2022/07/12 05:55:06;;;;;;;5.63;5.13;;;16.50;77.50;;;;;;5049451;28;20040;-61
2022/07/12 05:57:32;;;;;;;6.05;5.45;;;16.60;77.30;;;;;;5051574;28;20041;-63
2022/07/12 05:59:58;;;;;;;5.75;5.15;;;16.70;77.20;;;;;;5051551;28;20040;-63
2022/07/12 06:02:24;;;;;;;5.80;5.15;;;16.80;76.80;;;;;;5052650;28;20262;-62
2022/07/12 06:04:50;;;;;;;5.65;5.05;;;16.90;76.80;;;;;;5051293;28;20040;-64
2022/07/12 06:07:16;;;;;;;6.30;5.10;;;17.00;76.80;;;;;;5052906;28;20511;-64
2022/07/12 06:09:42;;;;;;;7.95;5.53;;;17.20;77.00;;;;;;5053716;28;20037;-64
2022/07/12 06:12:08;;;;;;;7.00;5.68;;;17.30;76.70;;;;;;5054097;28;20063;-62
2022/07/12 06:14:33;;;;;;;6.25;5.68;;;17.40;76.80;;;;;;5055526;28;20025;-61
2022/07/12 06:16:59;;;;;;;8.07;5.35;;;17.50;76.50;;;;;;5055326;28;20028;-61
2022/07/12 06:19:26;;;;;;;8.65;5.47;;;17.60;76.30;;;;;;5057077;28;20040;-62
2022/07/12 06:21:52;;;;;;;6.35;5.28;;;17.70;76.10;;;;;;5056088;28;20029;-63
2022/07/12 06:24:17;;;;;;;6.40;5.78;;;17.80;76.30;;;;;;5054369;28;20035;-63
2022/07/12 06:26:43;;;;;;;6.25;5.10;;;17.90;75.90;;;;;;5055733;28;20028;-61
2022/07/12 06:29:08;;;;;;;5.53;5.03;;;18.00;75.60;;;;;;5053922;28;20033;-63
2022/07/12 06:31:34;;;;;;;7.13;5.07;;;18.10;75.40;;;;;;5055076;28;20533;-58
2022/07/12 06:34:00;;;;;;;6.03;5.43;;;18.10;75.20;;;;;;5057271;28;20033;-62
2022/07/12 06:36:26;;;;;;;6.75;4.97;;;18.20;75.10;;;;;;5051793;28;20051;-62
2022/07/12 06:38:51;;;;;;;6.72;5.45;;;18.30;74.90;;;;;;5054110;28;20447;-63
2022/07/12 06:41:17;;;;;;;5.78;5.15;;;18.40;74.90;;;;;;5033453;28;20033;-62
2022/07/12 06:43:42;;;;;;;5.90;5.32;;;18.50;74.60;;;;;;5054025;28;20033;-63
2022/07/12 06:46:08;;;;;;;6.30;5.45;;;18.60;74.70;;;;;;5054885;28;20032;-63
2022/07/12 06:48:34;;;;;;;6.03;5.53;;;18.70;74.50;;;;;;5052747;28;20395;-63
2022/07/12 06:50:59;;;;;;;6.70;5.43;;;18.70;74.40;;;;;;5055494;28;20565;-60
2022/07/12 06:53:25;;;;;;;6.28;5.68;;;18.80;74.00;;;;;;5058861;28;20032;-61
2022/07/12 06:55:50;;;;;;;5.28;4.78;;;18.90;73.90;;;;;;5058667;28;20033;-62
2022/07/12 06:58:16;;;;;;;16.42;5.22;;;18.90;73.70;;;;;;5059114;28;20032;-63
2022/07/12 07:00:42;;;;;;;7.30;5.70;;;19.00;73.70;;;;;;5060624;28;20040;-60
2022/07/12 07:03:08;;;;;;;5.97;5.38;;;19.10;73.40;;;;;;5057301;28;20553;-63
2022/07/12 07:05:35;;;;;;;6.03;5.43;;;19.20;72.90;;;;;;5057133;28;20131;-61
2022/07/12 07:08:00;;;;;;;6.05;4.85;;;19.30;72.70;;;;;;5055559;28;20048;-63
2022/07/12 07:10:26;;;;;;;5.72;5.22;;;19.30;72.40;;;;;;5057210;28;20040;-60
2022/07/12 07:12:51;;;;;;;6.65;5.95;;;19.40;72.50;;;;;;5059109;28;20699;-59
2022/07/12 07:15:17;;;;;;;6.45;5.85;;;19.50;72.00;;;;;;5058551;28;20040;-62
2022/07/12 07:17:43;;;;;;;6.60;4.93;;;19.50;71.70;;;;;;5058912;28;20044;-62
2022/07/12 07:20:10;;;;;;;5.95;5.35;;;19.60;71.80;;;;;;5056939;28;20036;-62
2022/07/12 07:22:36;;;;;;;6.30;5.50;;;19.70;71.70;;;;;;5056287;28;20036;-62
2022/07/12 07:25:02;;;;;;;7.50;4.82;;;19.70;71.30;;;;;;5057704;28;20067;-62
2022/07/12 07:27:28;;;;;;;5.75;5.25;;;19.80;71.40;;;;;;5057416;28;20139;-62
2022/07/12 07:32:38;;;;;;;5.83;5.07;;;19.90;70.90;;;;;;5055369;28;20556;-62
2022/07/12 07:35:05;;;;;;;8.15;4.90;;;20.00;70.90;;;;;;5056775;28;20312;-61
2022/07/12 07:37:32;;;;;;;5.10;4.43;;;20.10;70.20;;;;;;5056375;28;20687;-62
2022/07/12 07:39:57;;;;;;;5.00;4.10;;;20.20;69.90;;;;;;5056835;28;20036;-60
2022/07/12 07:42:23;;;;;;;5.32;3.97;;;20.30;69.50;;;;;;5059328;28;20055;-62
2022/07/12 07:44:48;;;;;;;4.85;4.30;;;20.40;69.20;;;;;;5057424;28;20045;-63
2022/07/12 07:47:14;;;;;;;4.60;4.15;;;20.50;69.00;;;;;;5059485;28;20081;-63
2022/07/12 07:49:40;;;;;;;5.60;3.65;;;20.60;68.80;;;;;;5049230;28;20900;-63
2022/07/12 07:52:05;;;;;;;4.32;3.42;;;20.70;68.50;;;;;;5053358;28;20036;-63
2022/07/12 07:54:31;;;;;;;5.28;3.75;;;20.70;68.10;;;;;;5057257;28;20036;-63
2022/07/12 07:56:56;;;;;;;4.20;3.30;;;20.80;67.50;;;;;;5056353;28;20492;-62
2022/07/12 07:59:23;;;;;;;3.92;3.28;;;20.90;67.40;;;;;;5056371;28;20045;-63
2022/07/12 08:01:52;;;;;;;4.82;3.63;;;21.00;67.40;;;;;;5050986;28;20060;-63
2022/07/12 08:04:18;;;;;;;4.30;3.90;;;21.10;66.90;;;;;;5055458;28;20029;-58
2022/07/12 08:06:45;;;;;;;4.28;3.70;;;21.20;66.60;;;;;;5055182;28;20085;-64
2022/07/12 08:09:11;;;;;;;3.45;3.10;;;21.30;66.40;;;;;;5056889;28;20033;-63
2022/07/12 08:11:37;;;;;;;6.32;3.42;;;21.40;66.20;;;;;;5055108;28;20032;-60
2022/07/12 08:14:04;;;;;;;4.97;3.60;;;21.40;65.50;;;;;;5056421;28;20048;-64
2022/07/12 08:16:30;;;;;;;7.13;3.80;;;21.60;65.10;;;;;;5055557;28;20045;-64
2022/07/12 08:18:56;;;;;;;5.72;4.10;;;21.60;64.70;;;;;;5038794;28;20122;-62
2022/07/12 08:21:22;;;;;;;6.15;3.63;;;21.70;64.60;;;;;;5055405;28;20496;-64
2022/07/12 08:23:47;;;;;;;5.65;3.63;;;21.80;64.70;;;;;;5039064;28;20036;-64
2022/07/12 08:26:14;;;;;;;3.50;3.20;;;21.90;64.90;;;;;;5055479;28;20068;-61
2022/07/12 08:28:40;;;;;;;5.05;3.90;;;21.90;64.30;;;;;;5056104;28;20106;-62
2022/07/12 08:31:06;;;;;;;5.20;3.15;;;22.10;63.40;;;;;;5056331;28;20514;-64
2022/07/12 08:33:31;;;;;;;2.92;2.72;;;22.10;63.40;;;;;;5056434;28;20035;-64
2022/07/12 08:35:57;;;;;;;3.60;3.30;;;22.20;63.30;;;;;;5057334;28;20094;-64
2022/07/12 08:38:23;;;;;;;3.20;2.90;;;22.30;62.40;;;;;;5056441;28;20071;-64
2022/07/12 08:40:49;;;;;;;18.52;3.50;;;22.40;62.40;;;;;;5055967;28;20500;-64
2022/07/12 08:43:15;;;;;;;5.20;2.83;;;22.50;62.40;;;;;;5055076;28;20108;-61
2022/07/12 08:45:40;;;;;;;2.65;2.40;;;22.60;61.70;;;;;;5056730;28;20123;-63
2022/07/12 08:48:07;;;;;;;5.63;2.33;;;22.70;60.50;;;;;;5055988;28;20496;-62
2022/07/12 08:50:33;;;;;;;2.42;2.33;;;22.80;59.80;;;;;;5052894;28;20456;-62
2022/07/12 08:52:58;;;;;;;4.25;2.22;;;22.80;60.10;;;;;;5053039;28;20037;-64
2022/07/12 08:55:34;;;;;;;3.25;2.70;;;23.00;59.90;;;;;;5055640;28;20568;-63
2022/07/12 08:58:06;;;;;;;2.72;1.92;;;23.10;58.40;;;;;;5052535;28;20033;-63
2022/07/12 09:00:32;;;;;;;1.80;1.65;;;23.10;58.20;;;;;;5050257;28;20527;-63
2022/07/12 09:03:00;;;;;;;1.88;1.63;;;23.20;58.20;;;;;;5053032;28;20033;-63
2022/07/12 09:05:28;;;;;;;1.48;1.38;;;23.30;57.80;;;;;;5051257;28;20068;-64
2022/07/12 09:08:07;;;;;;;2.83;1.80;;;23.40;57.30;;;;;;5052857;28;20044;-63
2022/07/12 09:10:34;;;;;;;1.85;1.60;;;23.50;55.60;;;;;;5050944;28;20115;-62
2022/07/12 09:13:00;;;;;;;2.55;1.50;;;23.50;55.80;;;;;;5053835;28;20500;-60
2022/07/12 09:15:27;;;;;;;4.70;1.20;;;23.50;56.30;;;;;;5051672;28;20045;-62
2022/07/12 09:18:12;;;;;;;1.98;1.63;;;23.50;55.70;;;;;;5055994;28;20033;-62
2022/07/12 09:20:38;;;;;;;;;;;23.40;55.00;;;;;;5054464;28;20397;-63
2022/07/12 09:23:06;;;;;;;1.85;1.35;;;23.40;53.10;;;;;;5053203;28;19973;-63
2022/07/12 09:25:32;;;;;;;1.50;1.23;;;23.40;55.30;;;;;;5054523;28;20590;-63
2022/07/12 09:28:00;;;;;;;1.27;1.08;;;23.30;55.60;;;;;;5056542;28;20222;-61
2022/07/12 09:30:27;;;;;;;2.17;1.45;;;23.30;55.60;;;;;;5052728;28;20504;-63
2022/07/12 09:38:25;;;;;;;1.48;1.20;;;23.30;54.80;;;;;;5049350;28;20516;-63
2022/07/12 09:40:51;;;;;;;1.65;1.20;;;23.40;55.50;;;;;;5050911;28;20538;-61
2022/07/12 09:43:18;;;;;;;1.20;1.05;;;23.40;54.80;;;;;;5055190;28;20041;-64
2022/07/12 09:45:47;;;;;;;2.17;1.25;;;23.40;55.10;;;;;;5055258;28;20503;-62
2022/07/12 09:48:13;;;;;;;1.67;1.13;;;23.40;55.00;;;;;;5054009;28;20036;-64
2022/07/12 09:50:39;;;;;;;4.90;1.10;;;23.50;54.80;;;;;;5053838;28;20047;-64
2022/07/12 09:53:09;;;;;;;1.52;1.10;;;23.50;54.80;;;;;;5049981;28;20037;-64
2022/07/12 09:55:37;;;;;;;1.85;1.10;;;23.50;55.00;;;;;;5051932;28;20039;-65
2022/07/12 09:58:04;;;;;;;2.75;0.98;;;23.60;55.20;;;;;;5049177;28;20045;-62
2022/07/12 10:00:31;;;;;;;1.10;1.02;;;23.80;55.50;;;;;;5051285;28;20090;-63
2022/07/12 10:02:59;;;;;;;1.70;1.38;;;23.90;54.90;;;;;;5050165;28;20040;-62
2022/07/12 10:05:25;;;;;;;1.85;1.20;;;24.10;54.70;;;;;;5050510;28;20358;-63
2022/07/12 10:07:51;;;;;;;0.88;0.88;;;24.10;54.10;;;;;;5053634;28;20072;-63
2022/07/12 10:10:18;;;;;;;1.05;0.88;;;24.20;53.60;;;;;;5054712;28;20072;-60
2022/07/12 10:12:44;;;;;;;1.05;0.93;;;24.30;53.60;;;;;;5051415;28;20048;-60
2022/07/12 10:15:15;;;;;;;1.00;1.00;;;24.30;53.70;;;;;;5052144;28;20040;-61
2022/07/12 10:17:43;;;;;;;0.85;0.82;;;24.40;52.70;;;;;;5055530;28;20037;-62
2022/07/12 10:20:17;;;;;;;1.23;0.82;;;24.50;52.80;;;;;;5053399;28;20131;-61
2022/07/12 10:22:42;;;;;;;0.82;0.82;;;24.60;52.10;;;;;;5052925;28;20039;-62
2022/07/12 10:25:33;;;;;;;0.80;0.80;;;24.70;52.10;;;;;;5053722;28;20049;-63
2022/07/12 10:28:02;;;;;;;0.82;0.63;;;24.80;51.80;;;;;;5056673;28;20037;-63
2022/07/12 10:30:29;;;;;;;1.60;0.70;;;24.90;52.50;;;;;;5056349;28;20404;-63
2022/07/12 10:32:58;;;;;;;0.80;0.77;;;25.10;52.50;;;;;;5040764;28;20058;-64
2022/07/12 10:35:25;;;;;;;2.08;0.80;;;25.20;51.90;;;;;;5059514;28;20048;-60
2022/07/12 10:38:12;;;;;;;3.25;0.93;;;25.40;51.70;;;;;;5059830;28;20060;-64
2022/07/12 10:40:43;;;;;;;1.00;0.77;;;25.50;51.10;;;;;;5057387;28;20514;-60
2022/07/12 10:43:09;;;;;;;0.88;0.75;;;25.60;51.40;;;;;;5058010;28;20041;-63
2022/07/12 10:45:38;;;;;;;0.70;0.63;;;25.70;51.30;;;;;;5059039;28;20496;-63
2022/07/12 10:48:07;;;;;;;1.48;0.80;;;25.70;50.80;;;;;;5058834;28;20029;-62
2022/07/12 10:51:00;;;;;;;1.02;0.90;;;25.70;50.20;;;;;;5058351;28;20060;-63
2022/07/12 10:53:42;;;;;;;0.80;0.80;;;25.70;49.60;;;;;;5058527;28;20033;-64
2022/07/12 10:56:07;;;;;;;3.15;0.60;;;25.70;49.50;;;;;;5056921;28;20507;-62
2022/07/12 10:58:35;;;;;;;0.73;0.73;;;25.70;50.10;;;;;;5058196;28;20036;-60
2022/07/12 11:01:04;;;;;;;1.13;0.60;;;25.70;50.20;;;;;;5059566;28;20321;-63
2022/07/12 11:03:41;;;;;;;0.70;0.70;;;25.70;49.90;;;;;;5060847;28;20075;-62
2022/07/12 11:06:08;;;;;;;1.00;0.68;;;25.70;48.90;;;;;;5057663;28;20408;-63
2022/07/12 11:08:51;;;;;;;1.80;0.70;;;25.70;49.70;;;;;;5057877;28;20036;-63
2022/07/12 11:11:18;;;;;;;2.08;0.80;;;25.70;50.00;;;;;;5055554;28;20042;-64
2022/07/12 11:13:44;;;;;;;0.90;0.60;;;25.70;50.30;;;;;;5058555;28;20040;-63
2022/07/12 11:16:10;;;;;;;0.60;0.60;;;25.70;50.00;;;;;;5059663;28;20040;-63
2022/07/12 11:18:36;;;;;;;0.70;0.70;;;25.90;49.30;;;;;;5060128;28;20062;-62
2022/07/12 11:21:03;;;;;;;1.55;0.80;;;25.90;49.30;;;;;;5059419;28;20331;-62
2022/07/12 11:23:30;;;;;;;0.60;0.60;;;25.90;49.30;;;;;;5058341;28;20039;-64
2022/07/12 11:26:00;;;;;;;0.88;0.65;;;26.00;49.40;;;;;;5059633;28;20063;-62
2022/07/12 11:28:30;;;;;;;1.30;0.70;;;26.10;49.40;;;;;;5058479;28;20534;-64
2022/07/12 11:31:22;;;;;;;2.40;0.60;;;26.10;50.20;;;;;;5057706;28;20043;-64
2022/07/12 11:33:50;;;;;;;2.58;0.63;;;26.20;49.20;;;;;;5052429;28;20037;-63
2022/07/12 11:36:17;;;;;;;2.00;0.90;;;26.30;49.20;;;;;;5060245;28;20032;-64
2022/07/12 11:38:44;;;;;;;0.75;0.68;;;26.40;48.60;;;;;;5057742;28;20601;-64
2022/07/12 11:41:14;;;;;;;0.70;0.70;;;26.40;48.30;;;;;;5059265;28;20047;-63
2022/07/12 11:43:40;;;;;;;0.60;0.60;;;26.50;47.90;;;;;;5058444;28;20059;-61
2022/07/12 11:46:07;;;;;;;1.52;0.80;;;26.50;46.80;;;;;;5059437;28;20140;-61
2022/07/12 11:48:35;;;;;;;0.60;0.60;;;26.50;46.80;;;;;;5057801;28;20048;-60
2022/07/12 11:51:05;;;;;;;4.57;1.08;;;26.40;47.00;;;;;;5054860;28;20062;-64
2022/07/12 11:53:32;;;;;;;0.73;0.73;;;26.40;47.00;;;;;;5060563;28;20064;-62
2022/07/12 11:56:01;;;;;;;1.75;0.65;;;26.30;47.00;;;;;;5059158;28;20059;-63
2022/07/12 11:58:28;;;;;;;0.52;0.52;;;26.30;47.20;;;;;;5057959;28;20579;-61
2022/07/12 12:00:54;;;;;;;1.40;0.70;;;26.30;47.50;;;;;;5059051;28;20029;-64
2022/07/12 12:03:24;;;;;;;1.63;0.50;;;26.30;47.90;;;;;;5057256;28;20039;-63
2022/07/12 12:05:54;;;;;;;1.27;0.60;;;26.30;47.00;;;;;;5055712;28;20491;-62
2022/07/12 12:08:21;;;;;;;0.65;0.60;;;26.30;47.20;;;;;;5059042;28;20040;-62
2022/07/12 12:10:58;;;;;;;2.88;0.80;;;26.40;47.00;;;;;;5053675;28;20698;-62
2022/07/12 12:13:29;;;;;;;1.52;0.57;;;26.40;47.20;;;;;;5059688;28;20044;-63
2022/07/12 12:16:02;;;;;;;1.50;0.60;;;26.40;47.60;;;;;;5055163;28;20032;-65
2022/07/12 12:18:35;;;;;;;0.73;0.70;;;26.50;46.70;;;;;;5055865;28;20732;-59
2022/07/12 12:21:07;;;;;;;0.63;0.50;;;26.50;45.60;;;;;;5055686;28;20037;-62
2022/07/12 12:23:33;;;;;;;0.52;0.50;;;26.60;45.50;;;;;;5059115;28;20053;-63
2022/07/12 12:26:13;;;;;;;0.50;0.50;;;26.60;45.30;;;;;;5058805;28;20037;-61
2022/07/12 12:28:44;;;;;;;1.48;0.70;;;26.60;45.50;;;;;;5054759;28;20034;-63
2022/07/12 12:31:11;;;;;;;0.45;0.40;;;26.60;45.90;;;;;;5053279;28;20413;-63
2022/07/12 12:33:39;;;;;;;2.15;0.60;;;26.60;46.00;;;;;;5057112;28;20108;-62
2022/07/12 12:36:11;;;;;;;0.50;0.50;;;26.60;45.60;;;;;;5054887;28;20090;-63
2022/07/12 12:38:37;;;;;;;0.60;0.60;;;26.70;45.30;;;;;;5054191;28;20059;-65
2022/07/12 12:41:04;;;;;;;0.50;0.50;;;26.80;46.00;;;;;;5055976;28;20110;-63
2022/07/12 12:43:31;;;;;;;1.15;0.60;;;26.80;46.00;;;;;;5055217;28;20066;-64
2022/07/12 12:45:57;;;;;;;1.30;0.60;;;26.80;45.20;;;;;;5055118;28;20719;-63
2022/07/12 12:48:25;;;;;;;0.60;0.60;;;26.90;46.10;;;;;;5054528;28;20399;-63
2022/07/12 12:50:53;;;;;;;0.52;0.47;;;26.90;44.80;;;;;;5055926;28;20112;-63
2022/07/12 12:53:23;;;;;;;0.50;0.50;;;27.00;45.40;;;;;;5054814;28;20035;-62
2022/07/12 12:55:51;;;;;;;1.00;0.68;;;27.00;44.70;;;;;;5054906;28;20040;-62
2022/07/12 12:58:18;;;;;;;0.70;0.50;;;27.00;44.60;;;;;;5055502;28;20455;-61